createdAt,value
2023-02-07T00:00:11.000Z,-0.4
2023-02-07T00:01:27.000Z,-0.4
2023-02-07T00:02:43.000Z,-0.4
2023-02-07T00:04:00.000Z,-0.4
2023-02-07T00:05:16.000Z,-0.5
2023-02-07T00:06:32.000Z,-0.5
2023-02-07T00:07:48.000Z,-0.5
2023-02-07T00:09:05.000Z,-0.5
2023-02-07T00:10:21.000Z,-0.5
2023-02-07T00:11:37.000Z,-0.4
2023-02-07T00:12:53.000Z,-0.4
2023-02-07T00:14:10.000Z,-0.4
2023-02-07T00:15:26.000Z,-0.3
2023-02-07T00:16:41.000Z,-0.2
2023-02-07T00:17:57.000Z,-0.1
2023-02-07T00:19:13.000Z,-0.1
2023-02-07T00:20:30.000Z,-0.1
2023-02-07T00:21:46.000Z,-0.1
2023-02-07T00:23:02.000Z,-0.1
2023-02-07T00:24:18.000Z,0
2023-02-07T00:25:35.000Z,0
2023-02-07T00:26:51.000Z,0.1
2023-02-07T00:28:07.000Z,0.2
2023-02-07T00:29:23.000Z,0.2
2023-02-07T00:30:40.000Z,0.2
2023-02-07T00:31:56.000Z,0.2
2023-02-07T00:33:11.000Z,0.3
2023-02-07T00:34:27.000Z,0.3
2023-02-07T00:35:44.000Z,0.2
2023-02-07T00:37:00.000Z,0.3
2023-02-07T00:38:16.000Z,0.3
2023-02-07T00:39:32.000Z,0.3
2023-02-07T00:40:48.000Z,0.3
2023-02-07T00:42:05.000Z,0.2
2023-02-07T00:43:21.000Z,0.1
2023-02-07T00:44:37.000Z,0.1
2023-02-07T00:45:53.000Z,0
2023-02-07T00:47:09.000Z,0
2023-02-07T00:48:24.000Z,0
2023-02-07T00:49:39.000Z,0
2023-02-07T00:50:54.000Z,0
2023-02-07T00:52:11.000Z,0
2023-02-07T00:53:27.000Z,0.1
2023-02-07T00:54:43.000Z,0
2023-02-07T00:55:59.000Z,0
2023-02-07T00:57:16.000Z,0
2023-02-07T00:58:32.000Z,-0.1
2023-02-07T00:59:48.000Z,-0.1
2023-02-07T01:01:04.000Z,-0.2
2023-02-07T01:02:21.000Z,-0.2
2023-02-07T01:03:37.000Z,-0.3
2023-02-07T01:04:53.000Z,-0.4
2023-02-07T01:06:09.000Z,-0.4
2023-02-07T01:07:25.000Z,-0.4
2023-02-07T01:08:41.000Z,-0.4
2023-02-07T01:09:57.000Z,-0.5
2023-02-07T01:11:13.000Z,-0.5
2023-02-07T01:12:29.000Z,-0.5
2023-02-07T01:13:46.000Z,-0.5
2023-02-07T01:15:02.000Z,-0.6
2023-02-07T01:16:17.000Z,-0.6
2023-02-07T01:17:32.000Z,-0.7
2023-02-07T01:18:48.000Z,-0.7
2023-02-07T01:20:03.000Z,-0.7
2023-02-07T01:21:19.000Z,-0.8
2023-02-07T01:22:35.000Z,-0.8
2023-02-07T01:23:52.000Z,-0.8
2023-02-07T01:25:08.000Z,-0.9
2023-02-07T01:26:24.000Z,-0.9
2023-02-07T01:27:40.000Z,-1
2023-02-07T01:28:57.000Z,-1
2023-02-07T01:30:13.000Z,-1.1
2023-02-07T01:31:29.000Z,-1.1
2023-02-07T01:32:45.000Z,-1.1
2023-02-07T01:34:02.000Z,-1
2023-02-07T01:35:18.000Z,-0.9
2023-02-07T01:36:33.000Z,-0.9
2023-02-07T01:37:49.000Z,-0.9
2023-02-07T01:39:06.000Z,-1
2023-02-07T01:40:22.000Z,-1
2023-02-07T01:41:38.000Z,-1.1
2023-02-07T01:42:54.000Z,-1.2
2023-02-07T01:44:10.000Z,-1.2
2023-02-07T01:45:26.000Z,-1.2
2023-02-07T01:46:41.000Z,-1.3
2023-02-07T01:47:57.000Z,-1.3
2023-02-07T01:49:12.000Z,-1.4
2023-02-07T01:50:28.000Z,-1.4
2023-02-07T01:51:44.000Z,-1.5
2023-02-07T01:53:00.000Z,-1.3
2023-02-07T01:54:16.000Z,-1.3
2023-02-07T01:55:33.000Z,-1.2
2023-02-07T01:56:49.000Z,-1.2
2023-02-07T01:58:05.000Z,-1.3
2023-02-07T01:59:21.000Z,-1.4
2023-02-07T02:00:38.000Z,-1.3
2023-02-07T02:01:54.000Z,-1.3
2023-02-07T02:03:10.000Z,-1.2
2023-02-07T02:04:26.000Z,-1.2
2023-02-07T02:05:43.000Z,-1.2
2023-02-07T02:06:58.000Z,-1.1
2023-02-07T02:08:14.000Z,-1.1
2023-02-07T02:09:30.000Z,-1
2023-02-07T02:10:46.000Z,-1.1
2023-02-07T02:12:03.000Z,-1.1
2023-02-07T02:13:19.000Z,-1.1
2023-02-07T02:14:35.000Z,-1.1
2023-02-07T02:15:50.000Z,-1.1
2023-02-07T02:17:06.000Z,-1.1
2023-02-07T02:18:21.000Z,-1.2
2023-02-07T02:19:36.000Z,-1.1
2023-02-07T02:20:51.000Z,-1.1
2023-02-07T02:22:08.000Z,-1.2
2023-02-07T02:23:24.000Z,-1.2
2023-02-07T02:24:40.000Z,-1.2
2023-02-07T02:25:56.000Z,-1.3
2023-02-07T02:27:13.000Z,-1.3
2023-02-07T02:28:29.000Z,-1.4
2023-02-07T02:29:45.000Z,-1.5
2023-02-07T02:31:01.000Z,-1.5
2023-02-07T02:32:18.000Z,-1.4
2023-02-07T02:33:34.000Z,-1.3
2023-02-07T02:34:50.000Z,-1.3
2023-02-07T02:36:06.000Z,-1.3
2023-02-07T02:37:22.000Z,-1.4
2023-02-07T02:38:38.000Z,-1.4
2023-02-07T02:39:54.000Z,-1.4
2023-02-07T02:41:10.000Z,-1.4
2023-02-07T02:42:26.000Z,-1.3
2023-02-07T02:43:43.000Z,-1.2
2023-02-07T02:44:58.000Z,-1.2
2023-02-07T02:46:13.000Z,-1.2
2023-02-07T02:47:29.000Z,-1.3
2023-02-07T02:48:44.000Z,-1.2
2023-02-07T02:50:00.000Z,-1.2
2023-02-07T02:51:16.000Z,-1.2
2023-02-07T02:52:32.000Z,-1.3
2023-02-07T02:53:49.000Z,-1.3
2023-02-07T02:55:05.000Z,-1.3
2023-02-07T02:56:21.000Z,-1.3
2023-02-07T02:57:37.000Z,-1.4
2023-02-07T02:58:54.000Z,-1.4
2023-02-07T03:00:10.000Z,-1.4
2023-02-07T03:01:26.000Z,-1.4
2023-02-07T03:02:42.000Z,-1.4
2023-02-07T03:03:59.000Z,-1.4
2023-02-07T03:05:14.000Z,-1.4
2023-02-07T03:06:30.000Z,-1.4
2023-02-07T03:07:46.000Z,-1.5
2023-02-07T03:09:03.000Z,-1.5
2023-02-07T03:10:19.000Z,-1.6
2023-02-07T03:11:35.000Z,-1.6
2023-02-07T03:12:51.000Z,-1.6
2023-02-07T03:14:07.000Z,-1.6
2023-02-07T03:15:22.000Z,-1.6
2023-02-07T03:16:38.000Z,-1.6
2023-02-07T03:17:53.000Z,-1.5
2023-02-07T03:19:08.000Z,-1.5
2023-02-07T03:20:25.000Z,-1.5
2023-02-07T03:21:41.000Z,-1.5
2023-02-07T03:22:57.000Z,-1.6
2023-02-07T03:24:13.000Z,-1.6
2023-02-07T03:25:30.000Z,-1.6
2023-02-07T03:26:46.000Z,-1.7
2023-02-07T03:28:02.000Z,-1.7
2023-02-07T03:29:18.000Z,-1.6
2023-02-07T03:30:35.000Z,-1.5
2023-02-07T03:31:51.000Z,-1.5
2023-02-07T03:33:07.000Z,-1.5
2023-02-07T03:34:23.000Z,-1.4
2023-02-07T03:35:39.000Z,-1.3
2023-02-07T03:36:55.000Z,-1.3
2023-02-07T03:38:11.000Z,-1.3
2023-02-07T03:39:27.000Z,-1.3
2023-02-07T03:40:44.000Z,-1.3
2023-02-07T03:42:00.000Z,-1.4
2023-02-07T03:43:16.000Z,-1.4
2023-02-07T03:44:31.000Z,-1.3
2023-02-07T03:45:46.000Z,-1.2
2023-02-07T03:47:02.000Z,-1.2
2023-02-07T03:48:17.000Z,-1.2
2023-02-07T03:49:33.000Z,-1.2
2023-02-07T03:50:49.000Z,-1.2
2023-02-07T03:52:06.000Z,-1.2
2023-02-07T03:53:22.000Z,-1.2
2023-02-07T03:54:38.000Z,-1.3
2023-02-07T03:55:54.000Z,-1.4
2023-02-07T03:57:11.000Z,-1.5
2023-02-07T03:58:27.000Z,-1.5
2023-02-07T03:59:43.000Z,-1.4
2023-02-07T04:00:59.000Z,-1.3
2023-02-07T04:02:16.000Z,-1.2
2023-02-07T04:03:32.000Z,-1.2
2023-02-07T04:04:47.000Z,-1.2
2023-02-07T04:06:03.000Z,-1.2
2023-02-07T04:07:20.000Z,-1.2
2023-02-07T04:08:36.000Z,-1.2
2023-02-07T04:09:52.000Z,-1.2
2023-02-07T04:11:08.000Z,-1.2
2023-02-07T04:12:24.000Z,-1.2
2023-02-07T04:13:40.000Z,-1.2
2023-02-07T04:14:55.000Z,-1.2
2023-02-07T04:16:11.000Z,-1.3
2023-02-07T04:17:27.000Z,-1.3
2023-02-07T04:18:43.000Z,-1.4
2023-02-07T04:19:58.000Z,-1.4
2023-02-07T04:21:14.000Z,-1.4
2023-02-07T04:22:30.000Z,-1.3
2023-02-07T04:23:47.000Z,-1.3
2023-02-07T04:25:03.000Z,-1.3
2023-02-07T04:26:19.000Z,-1.3
2023-02-07T04:27:35.000Z,-1.2
2023-02-07T04:28:52.000Z,-1.1
2023-02-07T04:30:08.000Z,-1
2023-02-07T04:31:24.000Z,-1
2023-02-07T04:32:40.000Z,-1
2023-02-07T04:33:57.000Z,-1
2023-02-07T04:36:29.000Z,-0.9
2023-02-07T04:37:44.000Z,-0.9
2023-02-07T04:39:01.000Z,-0.9
2023-02-07T04:41:33.000Z,-0.9
2023-02-07T04:42:48.000Z,-1
2023-02-07T04:44:04.000Z,-1
2023-02-07T04:45:20.000Z,-1
2023-02-07T04:46:36.000Z,-1
2023-02-07T04:47:52.000Z,-1
2023-02-07T04:49:08.000Z,-1.1
2023-02-07T04:50:25.000Z,-1.2
2023-02-07T04:51:41.000Z,-1.2
2023-02-07T04:52:57.000Z,-1.3
2023-02-07T04:54:13.000Z,-1.3
2023-02-07T04:55:30.000Z,-1.2
2023-02-07T04:56:45.000Z,-1.2
2023-02-07T04:58:00.000Z,-1.2
2023-02-07T04:59:16.000Z,-1.2
2023-02-07T05:00:33.000Z,-1.2
2023-02-07T05:01:49.000Z,-1.2
2023-02-07T05:03:05.000Z,-1.2
2023-02-07T05:04:21.000Z,-1.3
2023-02-07T05:05:38.000Z,-1.3
2023-02-07T05:06:54.000Z,-1.3
2023-02-07T05:08:10.000Z,-1.4
2023-02-07T05:09:26.000Z,-1.4
2023-02-07T05:10:42.000Z,-1.5
2023-02-07T05:11:59.000Z,-1.5
2023-02-07T05:13:15.000Z,-1.6
2023-02-07T05:14:30.000Z,-1.6
2023-02-07T05:15:46.000Z,-1.5
2023-02-07T05:17:03.000Z,-1.4
2023-02-07T05:18:19.000Z,-1.5
2023-02-07T05:19:35.000Z,-1.4
2023-02-07T05:20:51.000Z,-1.4
2023-02-07T05:22:08.000Z,-1.4
2023-02-07T05:23:23.000Z,-1.5
2023-02-07T05:24:38.000Z,-1.6
2023-02-07T05:25:53.000Z,-1.6
2023-02-07T05:27:09.000Z,-1.7
2023-02-07T05:28:25.000Z,-1.8
2023-02-07T05:29:41.000Z,-1.9
2023-02-07T05:30:57.000Z,-1.9
2023-02-07T05:32:14.000Z,-1.9
2023-02-07T05:33:30.000Z,-1.9
2023-02-07T05:34:46.000Z,-1.9
2023-02-07T05:36:02.000Z,-1.8
2023-02-07T05:37:19.000Z,-1.7
2023-02-07T05:38:35.000Z,-1.7
2023-02-07T05:39:51.000Z,-1.7
2023-02-07T05:41:07.000Z,-1.6
2023-02-07T05:42:23.000Z,-1.6
2023-02-07T05:43:39.000Z,-1.6
2023-02-07T05:44:55.000Z,-1.6
2023-02-07T05:46:11.000Z,-1.6
2023-02-07T05:47:27.000Z,-1.6
2023-02-07T05:48:44.000Z,-1.6
2023-02-07T05:50:00.000Z,-1.7
2023-02-07T05:51:16.000Z,-1.8
2023-02-07T05:52:31.000Z,-1.9
2023-02-07T05:53:47.000Z,-1.9
2023-02-07T05:55:03.000Z,-1.9
2023-02-07T05:56:19.000Z,-2
2023-02-07T05:57:34.000Z,-2.1
2023-02-07T05:58:50.000Z,-2.1
2023-02-07T06:00:06.000Z,-2.1
2023-02-07T06:01:22.000Z,-2
2023-02-07T06:02:38.000Z,-1.9
2023-02-07T06:03:55.000Z,-1.8
2023-02-07T06:05:11.000Z,-1.8
2023-02-07T06:06:27.000Z,-1.8
2023-02-07T06:07:43.000Z,-1.8
2023-02-07T06:08:59.000Z,-1.8
2023-02-07T06:10:16.000Z,-1.8
2023-02-07T06:11:32.457Z,-1.8
2023-02-07T06:12:48.000Z,-1.8
2023-02-07T06:14:04.000Z,-1.8
2023-02-07T06:15:20.000Z,-1.8
2023-02-07T06:16:36.000Z,-1.8
2023-02-07T06:17:52.000Z,-1.8
2023-02-07T06:19:08.000Z,-1.8
2023-02-07T06:20:25.000Z,-1.8
2023-02-07T06:21:41.000Z,-1.8
2023-02-07T06:22:57.000Z,-1.8
2023-02-07T06:24:13.000Z,-1.8
2023-02-07T06:25:30.000Z,-1.9
2023-02-07T06:26:46.000Z,-1.9
2023-02-07T06:28:02.000Z,-1.9
2023-02-07T06:29:18.000Z,-2
2023-02-07T06:30:34.000Z,-2
2023-02-07T06:31:50.000Z,-1.9
2023-02-07T06:33:06.000Z,-1.9
2023-02-07T06:34:22.000Z,-1.8
2023-02-07T06:35:37.000Z,-1.8
2023-02-07T06:36:54.000Z,-1.9
2023-02-07T06:38:10.000Z,-2
2023-02-07T06:39:26.000Z,-2
2023-02-07T06:40:42.000Z,-2.1
2023-02-07T06:41:59.000Z,-2.1
2023-02-07T06:43:15.000Z,-2
2023-02-07T06:44:31.000Z,-2
2023-02-07T06:45:47.000Z,-2
2023-02-07T06:47:04.000Z,-1.9
2023-02-07T06:48:20.000Z,-1.9
2023-02-07T06:49:36.000Z,-1.9
2023-02-07T06:52:09.000Z,-1.9
2023-02-07T06:53:24.000Z,-2
2023-02-07T06:54:40.000Z,-2
2023-02-07T06:55:56.000Z,-2.1
2023-02-07T06:57:12.000Z,-2.1
2023-02-07T06:58:29.000Z,-2.1
2023-02-07T06:59:45.000Z,-2.1
2023-02-07T07:01:01.000Z,-2
2023-02-07T07:02:17.000Z,-1.9
2023-02-07T07:03:34.000Z,-1.9
2023-02-07T07:04:50.000Z,-1.9
2023-02-07T07:06:06.000Z,-1.9
2023-02-07T07:07:21.000Z,-1.9
2023-02-07T07:08:37.000Z,-1.9
2023-02-07T07:09:52.000Z,-1.9
2023-02-07T07:11:07.000Z,-1.9
2023-02-07T07:12:23.000Z,-1.8
2023-02-07T07:13:40.000Z,-1.8
2023-02-07T07:14:56.000Z,-1.9
2023-02-07T07:16:12.000Z,-1.9
2023-02-07T07:17:28.000Z,-1.9
2023-02-07T07:18:45.000Z,-2
2023-02-07T07:20:01.000Z,-2.1
2023-02-07T07:21:17.000Z,-2.1
2023-02-07T07:22:33.000Z,-2.2
2023-02-07T07:23:50.000Z,-2.2
2023-02-07T07:25:06.000Z,-2.1
2023-02-07T07:26:22.000Z,-2.1
2023-02-07T07:27:37.000Z,-2.1
2023-02-07T07:28:53.000Z,-2.1
2023-02-07T07:30:10.000Z,-2.2
2023-02-07T07:31:26.000Z,-2.2
2023-02-07T07:32:42.000Z,-2.2
2023-02-07T07:33:58.000Z,-2.2
2023-02-07T07:35:15.000Z,-2.1
2023-02-07T07:36:30.000Z,-2.1
2023-02-07T07:37:45.000Z,-2
2023-02-07T07:39:00.000Z,-2
2023-02-07T07:40:16.000Z,-1.9
2023-02-07T07:41:32.000Z,-1.8
2023-02-07T07:42:48.000Z,-1.7
2023-02-07T07:44:04.000Z,-1.6
2023-02-07T07:45:21.000Z,-1.6
2023-02-07T07:46:37.000Z,-1.5
2023-02-07T07:47:53.000Z,-1.5
2023-02-07T07:49:09.000Z,-1.5
2023-02-07T07:50:26.000Z,-1.4
2023-02-07T07:51:42.000Z,-1.3
2023-02-07T07:52:58.000Z,-1.3
2023-02-07T07:54:14.000Z,-1.3
2023-02-07T07:55:30.000Z,-1.3
2023-02-07T07:56:46.000Z,-1.2
2023-02-07T07:58:02.000Z,-1.2
2023-02-07T07:59:18.000Z,-1.2
2023-02-07T08:00:34.000Z,-1.2
2023-02-07T08:01:51.000Z,-1.1
2023-02-07T08:03:07.000Z,-1.1
2023-02-07T08:04:23.000Z,-0.9
2023-02-07T08:05:39.000Z,-0.8
2023-02-07T08:06:56.000Z,-0.7
2023-02-07T08:08:12.000Z,-0.6
2023-02-07T08:09:28.000Z,-0.6
2023-02-07T08:10:44.000Z,-0.5
2023-02-07T08:12:01.000Z,-0.5
2023-02-07T08:13:16.000Z,-0.4
2023-02-07T08:14:32.000Z,-0.4
2023-02-07T08:15:48.000Z,-0.4
2023-02-07T08:17:05.000Z,-0.3
2023-02-07T08:18:21.000Z,-0.3
2023-02-07T08:19:37.000Z,-0.2
2023-02-07T08:20:53.000Z,-0.2
2023-02-07T08:22:09.000Z,-0.2
2023-02-07T08:23:26.000Z,-0.2
2023-02-07T08:24:42.000Z,-0.2
2023-02-07T08:25:58.000Z,-0.1
2023-02-07T08:27:14.000Z,-0.1
2023-02-07T08:28:31.000Z,-0.1
2023-02-07T08:29:46.000Z,0
2023-02-07T08:31:02.000Z,0
2023-02-07T08:32:18.000Z,0.1
2023-02-07T08:33:35.000Z,0.1
2023-02-07T08:34:51.000Z,0.2
2023-02-07T08:36:07.000Z,0.2
2023-02-07T08:37:23.000Z,0.2
2023-02-07T08:38:40.000Z,0.2
2023-02-07T08:39:56.000Z,0.3
2023-02-07T08:41:12.000Z,0.3
2023-02-07T08:42:28.000Z,0.3
2023-02-07T08:43:44.000Z,0.3
2023-02-07T08:45:01.000Z,0.3
2023-02-07T08:46:17.000Z,0.3
2023-02-07T08:47:32.000Z,0.4
2023-02-07T08:48:48.000Z,0.4
2023-02-07T08:50:05.000Z,0.4
2023-02-07T08:51:21.000Z,0.4
2023-02-07T08:52:37.000Z,0.5
2023-02-07T08:53:53.000Z,0.5
2023-02-07T08:55:10.000Z,0.5
2023-02-07T08:56:26.000Z,0.6
2023-02-07T08:57:42.000Z,0.6
2023-02-07T08:58:58.000Z,0.6
2023-02-07T09:00:15.000Z,0.6
2023-02-07T09:01:31.000Z,0.6
2023-02-07T09:02:47.000Z,0.7
2023-02-07T09:04:02.000Z,0.7
2023-02-07T09:05:18.000Z,0.7
2023-02-07T09:06:35.000Z,0.8
2023-02-07T09:07:51.000Z,0.8
2023-02-07T09:09:07.000Z,0.8
2023-02-07T09:10:23.000Z,0.8
2023-02-07T09:11:40.000Z,0.8
2023-02-07T09:12:56.000Z,0.9
2023-02-07T09:14:12.000Z,0.9
2023-02-07T09:15:28.000Z,0.9
2023-02-07T09:16:45.000Z,0.9
2023-02-07T09:18:01.000Z,0.9
2023-02-07T09:19:17.000Z,1
2023-02-07T09:20:32.000Z,1.1
2023-02-07T09:21:49.000Z,1.1
2023-02-07T09:23:05.000Z,1.1
2023-02-07T09:24:21.000Z,1.1
2023-02-07T09:25:37.000Z,1.1
2023-02-07T09:26:53.000Z,1.2
2023-02-07T09:28:10.000Z,1.2
2023-02-07T09:29:26.000Z,1.2
2023-02-07T09:30:42.000Z,1.2
2023-02-07T09:31:58.000Z,1.2
2023-02-07T09:33:15.000Z,1.3
2023-02-07T09:34:31.000Z,1.3
2023-02-07T09:35:47.000Z,1.3
2023-02-07T09:37:03.000Z,1.4
2023-02-07T09:38:19.000Z,1.5
2023-02-07T09:40:51.000Z,1.6
2023-02-07T09:42:07.000Z,1.6
2023-02-07T09:43:24.000Z,1.7
2023-02-07T09:44:40.000Z,1.8
2023-02-07T09:45:56.000Z,1.8
2023-02-07T09:47:12.000Z,1.8
2023-02-07T09:48:28.000Z,1.8
2023-02-07T09:49:45.000Z,1.9
2023-02-07T09:51:01.000Z,1.9
2023-02-07T09:52:17.000Z,1.9
2023-02-07T09:53:33.000Z,1.9
2023-02-07T09:54:49.000Z,1.9
2023-02-07T09:56:05.000Z,2
2023-02-07T09:57:21.000Z,2
2023-02-07T09:58:37.000Z,2.1
2023-02-07T09:59:54.000Z,2.1
2023-02-07T10:01:10.000Z,2.1
2023-02-07T10:02:26.000Z,2.2
2023-02-07T10:03:42.000Z,2.2
2023-02-07T10:04:59.000Z,2.2
2023-02-07T10:06:15.000Z,2.3
2023-02-07T10:07:31.000Z,2.3
2023-02-07T10:08:47.000Z,2.3
2023-02-07T10:10:03.000Z,2.3
2023-02-07T10:11:19.000Z,2.3
2023-02-07T10:12:35.000Z,2.3
2023-02-07T10:13:51.000Z,2.4
2023-02-07T10:15:07.000Z,2.4
2023-02-07T10:16:24.000Z,2.4
2023-02-07T10:17:40.000Z,2.4
2023-02-07T10:18:56.000Z,2.4
2023-02-07T10:20:12.000Z,2.4
2023-02-07T10:21:29.000Z,2.4
2023-02-07T10:22:45.000Z,2.5
2023-02-07T10:24:01.000Z,2.6
2023-02-07T10:25:17.000Z,2.6
2023-02-07T10:26:34.000Z,2.7
2023-02-07T10:27:50.000Z,2.7
2023-02-07T10:29:05.000Z,2.7
2023-02-07T10:30:21.000Z,2.6
2023-02-07T10:31:37.000Z,2.6
2023-02-07T10:32:52.000Z,2.7
2023-02-07T10:34:08.000Z,2.7
2023-02-07T10:35:24.000Z,2.8
2023-02-07T10:36:40.000Z,2.8
2023-02-07T10:37:57.000Z,2.9
2023-02-07T10:39:12.000Z,2.9
2023-02-07T10:40:28.000Z,2.9
2023-02-07T10:41:43.000Z,2.9
2023-02-07T10:43:00.000Z,2.9
2023-02-07T10:44:16.000Z,2.9
2023-02-07T10:45:32.000Z,2.9
2023-02-07T10:46:48.000Z,2.9
2023-02-07T10:48:05.000Z,3
2023-02-07T10:49:21.000Z,3.1
2023-02-07T10:50:36.000Z,3
2023-02-07T10:51:52.000Z,3.1
2023-02-07T10:53:09.000Z,3.2
2023-02-07T10:54:25.000Z,3.3
2023-02-07T10:55:41.000Z,3.3
2023-02-07T10:56:57.000Z,3.3
2023-02-07T10:58:14.000Z,3.3
2023-02-07T10:59:30.000Z,3.2
2023-02-07T11:00:46.000Z,3.3
2023-02-07T11:02:02.000Z,3.3
2023-02-07T11:03:18.000Z,3.5
2023-02-07T11:04:35.000Z,3.5
2023-02-07T11:05:51.000Z,3.6
2023-02-07T11:07:06.000Z,3.6
2023-02-07T11:08:22.000Z,3.5
2023-02-07T11:09:39.000Z,3.5
2023-02-07T11:10:55.000Z,3.5
2023-02-07T11:12:11.000Z,3.6
2023-02-07T11:13:27.000Z,3.6
2023-02-07T11:14:44.000Z,3.7
2023-02-07T11:16:00.000Z,3.7
2023-02-07T11:17:16.000Z,3.8
2023-02-07T11:18:32.000Z,3.8
2023-02-07T11:19:49.000Z,3.8
2023-02-07T11:21:05.000Z,3.8
2023-02-07T11:22:21.000Z,3.8
2023-02-07T11:23:36.000Z,3.9
2023-02-07T11:24:52.000Z,3.9
2023-02-07T11:26:09.000Z,3.8
2023-02-07T11:27:25.000Z,3.9
2023-02-07T11:28:41.000Z,3.9
2023-02-07T11:29:57.000Z,4
2023-02-07T11:31:14.000Z,3.9
2023-02-07T11:32:30.000Z,4
2023-02-07T11:33:46.000Z,4.1
2023-02-07T11:35:02.000Z,4.2
2023-02-07T11:36:19.000Z,4.1
2023-02-07T11:37:35.000Z,4.1
2023-02-07T11:38:51.000Z,3.9
2023-02-07T11:40:06.000Z,4
2023-02-07T11:41:23.000Z,4.1
2023-02-07T11:42:39.000Z,4.1
2023-02-07T11:43:55.000Z,4.1
2023-02-07T11:45:11.000Z,4.2
2023-02-07T11:46:27.000Z,4.1
2023-02-07T11:47:44.000Z,4.1
2023-02-07T11:49:00.000Z,4.1
2023-02-07T11:50:16.000Z,4.1
2023-02-07T11:51:32.000Z,4.2
2023-02-07T11:52:49.000Z,4.3
2023-02-07T11:54:05.000Z,4.3
2023-02-07T11:55:21.000Z,4.4
2023-02-07T11:56:36.000Z,4.5
2023-02-07T11:57:53.000Z,4.4
2023-02-07T11:59:09.000Z,4.3
2023-02-07T12:00:25.000Z,4.2
2023-02-07T12:01:41.000Z,4.2
2023-02-07T12:02:58.000Z,4.3
2023-02-07T12:04:14.000Z,4.3
2023-02-07T12:05:30.000Z,4.3
2023-02-07T12:06:46.000Z,4.5
2023-02-07T12:08:02.000Z,4.5
2023-02-07T12:09:19.000Z,4.6
2023-02-07T12:10:35.000Z,4.6
2023-02-07T12:11:50.000Z,4.7
2023-02-07T12:13:05.000Z,4.7
2023-02-07T12:14:21.000Z,4.6
2023-02-07T12:15:36.000Z,4.6
2023-02-07T12:16:52.000Z,4.5
2023-02-07T12:18:08.000Z,4.6
2023-02-07T12:19:25.000Z,4.6
2023-02-07T12:20:41.000Z,4.6
2023-02-07T12:21:57.000Z,4.6
2023-02-07T12:23:13.000Z,4.7
2023-02-07T12:24:30.000Z,4.7
2023-02-07T12:25:46.000Z,4.7
2023-02-07T12:27:02.000Z,4.7
2023-02-07T12:28:18.000Z,4.7
2023-02-07T12:29:35.000Z,4.7
2023-02-07T12:30:51.000Z,4.8
2023-02-07T12:32:06.000Z,4.9
2023-02-07T12:33:22.000Z,4.9
2023-02-07T12:34:39.000Z,4.8
2023-02-07T12:37:11.000Z,4.8
2023-02-07T12:38:27.000Z,4.7
2023-02-07T12:39:43.000Z,4.7
2023-02-07T12:41:00.000Z,4.7
2023-02-07T12:42:16.000Z,4.8
2023-02-07T12:43:32.000Z,4.9
2023-02-07T12:44:48.000Z,4.9
2023-02-07T12:46:05.000Z,5
2023-02-07T12:47:21.000Z,5.2
2023-02-07T12:48:36.000Z,5.3
2023-02-07T12:49:52.000Z,5.4
2023-02-07T12:51:09.000Z,5.3
2023-02-07T12:52:25.000Z,5
2023-02-07T12:54:57.000Z,5
2023-02-07T12:56:13.000Z,5.1
2023-02-07T12:57:30.000Z,5.1
2023-02-07T12:58:46.000Z,5.1
2023-02-07T13:00:02.000Z,5.2
2023-02-07T13:01:18.000Z,5.2
2023-02-07T13:02:35.000Z,5.2
2023-02-07T13:03:51.000Z,5.2
2023-02-07T13:05:06.000Z,5.1
2023-02-07T13:06:22.000Z,5.1
2023-02-07T13:07:39.000Z,5.1
2023-02-07T13:08:55.000Z,5.1
2023-02-07T13:10:11.000Z,5
2023-02-07T13:11:27.000Z,4.9
2023-02-07T13:12:44.000Z,5
2023-02-07T13:14:00.000Z,5.1
2023-02-07T13:15:16.000Z,5.1
2023-02-07T13:16:32.000Z,5
2023-02-07T13:17:49.000Z,5
2023-02-07T13:19:05.000Z,5
2023-02-07T13:20:21.000Z,5.1
2023-02-07T13:21:36.000Z,5.1
2023-02-07T13:22:52.000Z,5.1
2023-02-07T13:24:09.000Z,5.1
2023-02-07T13:25:25.000Z,5.2
2023-02-07T13:26:41.000Z,5.3
2023-02-07T13:27:57.000Z,5.3
2023-02-07T13:29:14.000Z,5.4
2023-02-07T13:30:30.000Z,5.4
2023-02-07T13:31:46.000Z,5.4
2023-02-07T13:33:02.000Z,5.4
2023-02-07T13:34:19.000Z,5.4
2023-02-07T13:35:35.000Z,5.4
2023-02-07T13:36:51.000Z,5.4
2023-02-07T13:38:06.000Z,5.4
2023-02-07T13:39:23.000Z,5.4
2023-02-07T13:40:39.000Z,5.3
2023-02-07T13:41:55.000Z,5.3
2023-02-07T13:43:11.000Z,5.3
2023-02-07T13:44:27.000Z,5.3
2023-02-07T13:45:44.000Z,5.3
2023-02-07T13:47:00.000Z,5.3
2023-02-07T13:48:16.000Z,5.3
2023-02-07T13:49:32.000Z,5.3
2023-02-07T13:50:49.000Z,5.3
2023-02-07T13:52:05.000Z,5.4
2023-02-07T13:53:21.000Z,5.4
2023-02-07T13:54:36.000Z,5.3
2023-02-07T13:55:53.000Z,5.3
2023-02-07T13:57:09.000Z,5.2
2023-02-07T13:58:25.000Z,5.2
2023-02-07T13:59:41.000Z,5.2
2023-02-07T14:00:58.000Z,5.2
2023-02-07T14:02:14.000Z,5.2
2023-02-07T14:03:30.000Z,5.2
2023-02-07T14:04:46.000Z,5.2
2023-02-07T14:06:02.000Z,5.2
2023-02-07T14:07:19.000Z,5.2
2023-02-07T14:08:35.000Z,5.3
2023-02-07T14:09:51.000Z,5.3
2023-02-07T14:11:06.000Z,5.3
2023-02-07T14:12:23.000Z,5.3
2023-02-07T14:13:39.000Z,5.2
2023-02-07T14:14:55.000Z,5.2
2023-02-07T14:16:11.000Z,5.3
2023-02-07T14:17:28.000Z,5.3
2023-02-07T14:18:44.000Z,5.3
2023-02-07T14:20:00.000Z,5.3
2023-02-07T14:21:16.000Z,5.3
2023-02-07T14:22:33.000Z,5.3
2023-02-07T14:23:49.000Z,5.3
2023-02-07T14:25:05.000Z,5.3
2023-02-07T14:26:21.000Z,5.2
2023-02-07T14:27:36.000Z,5.2
2023-02-07T14:28:53.000Z,5.1
2023-02-07T14:30:09.000Z,5.1
2023-02-07T14:31:25.000Z,5.2
2023-02-07T14:32:41.000Z,5.2
2023-02-07T14:33:58.000Z,5.2
2023-02-07T14:35:13.000Z,5.2
2023-02-07T14:36:28.000Z,5.2
2023-02-07T14:37:44.000Z,5.2
2023-02-07T14:39:00.000Z,5.1
2023-02-07T14:40:15.000Z,5.2
2023-02-07T14:41:31.000Z,5.1
2023-02-07T14:42:47.000Z,5.1
2023-02-07T14:44:04.000Z,5.1
2023-02-07T14:45:20.000Z,5.1
2023-02-07T14:46:36.000Z,5
2023-02-07T14:47:52.000Z,5
2023-02-07T14:49:09.000Z,4.9
2023-02-07T14:50:25.000Z,5
2023-02-07T14:51:41.000Z,5
2023-02-07T14:52:57.000Z,5
2023-02-07T14:54:13.000Z,5
2023-02-07T14:55:30.000Z,5
2023-02-07T14:56:45.000Z,5
2023-02-07T14:58:01.000Z,5.1
2023-02-07T14:59:17.000Z,5.1
2023-02-07T15:00:34.000Z,5.1
2023-02-07T15:01:50.000Z,5.1
2023-02-07T15:03:06.000Z,5.2
2023-02-07T15:04:22.000Z,5.3
2023-02-07T15:05:38.000Z,5.3
2023-02-07T15:06:54.000Z,5.1
2023-02-07T15:08:10.000Z,5
2023-02-07T15:09:26.000Z,5
2023-02-07T15:10:43.000Z,5.1
2023-02-07T15:11:59.000Z,5.2
2023-02-07T15:13:15.000Z,5.3
2023-02-07T15:14:31.000Z,5.2
2023-02-07T15:15:47.000Z,5.2
2023-02-07T15:17:04.000Z,5.1
2023-02-07T15:18:20.455Z,5
2023-02-07T15:19:36.000Z,5
2023-02-07T15:20:52.000Z,5
2023-02-07T15:22:08.000Z,4.9
2023-02-07T15:23:23.000Z,4.9
2023-02-07T15:24:39.000Z,4.9
2023-02-07T15:25:55.000Z,4.9
2023-02-07T15:27:12.000Z,4.9
2023-02-07T15:28:28.000Z,5
2023-02-07T15:29:44.000Z,5
2023-02-07T15:31:00.000Z,4.9
2023-02-07T15:32:17.000Z,4.9
2023-02-07T15:33:33.000Z,4.9
2023-02-07T15:34:49.000Z,4.8
2023-02-07T15:36:05.000Z,4.8
2023-02-07T15:37:22.000Z,4.7
2023-02-07T15:38:38.000Z,4.6
2023-02-07T15:39:53.000Z,4.6
2023-02-07T15:41:09.000Z,4.6
2023-02-07T15:42:25.000Z,4.5
2023-02-07T15:43:42.000Z,4.5
2023-02-07T15:44:58.000Z,4.5
2023-02-07T15:46:14.000Z,4.5
2023-02-07T15:47:30.000Z,4.5
2023-02-07T15:48:46.000Z,4.5
2023-02-07T15:50:01.000Z,4.5
2023-02-07T15:51:16.000Z,4.4
2023-02-07T15:52:31.000Z,4.4
2023-02-07T15:55:03.000Z,4.2
2023-02-07T15:56:18.000Z,4.2
2023-02-07T15:57:33.000Z,4.1
2023-02-07T15:58:50.000Z,4.1
2023-02-07T16:00:06.000Z,4.1
2023-02-07T16:01:22.000Z,4.1
2023-02-07T16:02:38.000Z,4
2023-02-07T16:03:55.000Z,4
2023-02-07T16:05:11.000Z,4
2023-02-07T16:06:27.000Z,4
2023-02-07T16:07:43.000Z,4.1
2023-02-07T16:09:00.000Z,4
2023-02-07T16:10:16.000Z,3.9
2023-02-07T16:11:32.000Z,3.8
2023-02-07T16:12:48.000Z,3.8
2023-02-07T16:14:04.000Z,3.7
2023-02-07T16:15:20.000Z,3.7
2023-02-07T16:16:36.000Z,3.7
2023-02-07T16:17:52.000Z,3.7
2023-02-07T16:19:08.000Z,3.7
2023-02-07T16:20:25.000Z,3.6
2023-02-07T16:21:41.000Z,3.7
2023-02-07T16:22:57.000Z,3.7
2023-02-07T16:24:12.000Z,3.7
2023-02-07T16:25:28.000Z,3.6
2023-02-07T16:26:44.000Z,3.5
2023-02-07T16:27:59.000Z,3.5
2023-02-07T16:29:14.000Z,3.4
2023-02-07T16:30:31.000Z,3.4
2023-02-07T16:31:47.000Z,3.3
2023-02-07T16:33:03.000Z,3.2
2023-02-07T16:34:19.000Z,3.1
2023-02-07T16:35:36.000Z,3.1
2023-02-07T16:36:52.000Z,3
2023-02-07T16:38:08.000Z,3
2023-02-07T16:39:24.000Z,2.9
2023-02-07T16:40:41.000Z,2.7
2023-02-07T16:41:57.000Z,2.6
2023-02-07T16:43:13.000Z,2.6
2023-02-07T16:44:29.000Z,2.5
2023-02-07T16:45:44.000Z,2.5
2023-02-07T16:47:01.000Z,2.4
2023-02-07T16:48:17.000Z,2.4
2023-02-07T16:49:33.000Z,2.3
2023-02-07T16:50:49.000Z,2.3
2023-02-07T16:52:06.000Z,2.3
2023-02-07T16:53:22.000Z,2.3
2023-02-07T16:54:38.000Z,2.3
2023-02-07T16:55:54.000Z,2.2
2023-02-07T16:57:11.000Z,2.2
2023-02-07T16:58:27.000Z,2.1
2023-02-07T16:59:43.000Z,2
2023-02-07T17:00:59.000Z,2
2023-02-07T17:02:15.000Z,2
2023-02-07T17:03:31.000Z,1.9
2023-02-07T17:04:47.000Z,1.9
2023-02-07T17:06:03.000Z,1.9
2023-02-07T17:07:19.000Z,1.9
2023-02-07T17:08:36.000Z,1.9
2023-02-07T17:09:52.000Z,1.9
2023-02-07T17:11:08.000Z,1.8
2023-02-07T17:12:24.000Z,1.8
2023-02-07T17:13:41.000Z,1.9
2023-02-07T17:14:57.000Z,2
2023-02-07T17:16:13.000Z,2.2
2023-02-07T17:17:29.000Z,2.3
2023-02-07T17:18:45.000Z,2.4
2023-02-07T17:20:00.000Z,2.4
2023-02-07T17:21:16.000Z,2.4
2023-02-07T17:22:31.000Z,2.5
2023-02-07T17:23:47.000Z,2.5
2023-02-07T17:25:03.000Z,2.5
2023-02-07T17:26:19.612Z,2.4
2023-02-07T17:27:35.000Z,2.4